Time;durP1;ratioP1;P1;durP2;ratioP2;P2;SDS_P1;SDS_P2;PMS_P1;PMS_P2;Temp;Humidity;BMP_temperature;BMP_pressure;BME280_temperature;BME280_humidity;BME280_pressure;Samples;Min_cycle;Max_cycle;Signal;HPM_P1;HPM_P2
2023/08/29 00:00:35;;;;;;;0.63;0.63;;;;;;;13.59;100.00;98076.13;4091894;28;20234;-46
2023/08/29 00:02:40;;;;;;;0.88;0.60;;;;;;;13.73;100.00;98075.28;4087621;29;20211;-47
2023/08/29 00:04:42;;;;;;;0.60;0.60;;;;;;;13.74;100.00;98071.41;4088300;29;20239;-46
2023/08/29 00:06:44;;;;;;;0.98;0.98;;;;;;;13.63;100.00;98069.78;4087254;29;20654;-46
2023/08/29 00:08:46;;;;;;;11.40;1.10;;;;;;;13.69;100.00;98074.16;4085970;29;20219;-46
2023/08/29 00:10:54;;;;;;;0.63;0.63;;;;;;;13.71;100.00;98063.69;4076918;29;20211;-47
2023/08/29 00:12:56;;;;;;;0.95;0.95;;;;;;;13.68;100.00;98067.03;4087034;28;20723;-47
2023/08/29 00:14:59;;;;;;;0.50;0.50;;;;;;;13.74;100.00;98060.41;4089215;29;20232;-46
2023/08/29 00:17:01;;;;;;;0.63;0.63;;;;;;;13.69;100.00;98063.16;4086823;28;20610;-46
2023/08/29 00:19:02;;;;;;;0.57;0.57;;;;;;;13.69;100.00;98056.88;4082378;28;20212;-46
2023/08/29 00:21:04;;;;;;;0.60;0.60;;;;;;;13.78;100.00;98061.47;4088993;29;20199;-46
2023/08/29 00:23:09;;;;;;;1.00;1.00;;;;;;;13.71;100.00;98065.66;4102833;28;20238;-46
2023/08/29 00:25:10;;;;;;;0.57;0.57;;;;;;;13.79;100.00;98057.66;4087729;29;20715;-48
2023/08/29 00:27:12;;;;;;;0.50;0.50;;;;;;;13.72;100.00;98065.38;4091466;29;20212;-45
2023/08/29 00:29:15;;;;;;;17.98;0.98;;;;;;;13.89;100.00;98057.59;4090141;29;20556;-46
2023/08/29 00:31:17;;;;;;;0.50;0.50;;;;;;;13.76;100.00;98063.69;4092529;29;20207;-46
2023/08/29 00:33:19;;;;;;;0.52;0.52;;;;;;;13.75;100.00;98062.06;4097792;28;20214;-47
2023/08/29 00:35:21;;;;;;;0.47;0.47;;;;;;;13.78;100.00;98068.91;4083573;28;20275;-46
2023/08/29 00:37:22;;;;;;;0.93;0.93;;;;;;;13.75;100.00;98062.06;4088095;28;20698;-46
2023/08/29 00:39:27;;;;;;;0.43;0.43;;;;;;;13.73;100.00;98064.25;4096409;28;20215;-47
2023/08/29 00:41:28;;;;;;;0.45;0.45;;;;;;;13.82;100.00;98062.56;4088966;29;20215;-46
2023/08/29 00:43:30;;;;;;;10.43;0.68;;;;;;;13.73;100.00;98058.75;4087161;29;20578;-46
2023/08/29 00:45:33;;;;;;;0.68;0.68;;;;;;;13.72;100.00;98062.63;4091852;28;20243;-47
2023/08/29 00:47:36;;;;;;;0.75;0.75;;;;;;;13.82;100.00;98065.31;4088351;29;20239;-46
2023/08/29 00:49:38;;;;;;;0.70;0.70;;;;;;;13.76;100.00;98073.88;4075043;29;20609;-46
2023/08/29 00:51:40;;;;;;;0.63;0.63;;;;;;;13.92;100.00;98065.28;4101648;28;20636;-46
2023/08/29 00:53:42;;;;;;;0.52;0.52;;;;;;;13.84;100.00;98073.28;4087675;28;20203;-46
2023/08/29 00:55:44;;;;;;;0.65;0.65;;;;;;;13.73;100.00;98075.28;4084300;28;20231;-46
2023/08/29 00:57:45;;;;;;;0.75;0.75;;;;;;;13.75;100.00;98084.06;4087085;29;20742;-48
2023/08/29 00:59:48;;;;;;;0.60;0.60;;;;;;;13.70;100.00;98086.81;4073482;29;20219;-46
2023/08/29 01:01:50;;;;;;;0.50;0.50;;;;;;;13.78;100.00;98086.22;4087382;29;20666;-47
2023/08/29 01:03:51;;;;;;;0.65;0.65;;;;;;;13.70;100.00;98086.81;4069883;29;20196;-46
2023/08/29 01:05:53;;;;;;;0.68;0.68;;;;;;;13.77;100.00;98089.28;4090366;29;20240;-46
2023/08/29 01:07:58;;;;;;;0.73;0.73;;;;;;;13.75;100.00;98078.56;4086618;29;20212;-46
2023/08/29 01:10:00;;;;;;;0.60;0.60;;;;;;;13.81;100.00;98082.94;4091247;28;20208;-45
2023/08/29 01:12:14;;;;;;;0.88;0.60;;;;;;;13.74;100.00;98087.06;4086499;29;20569;-46
2023/08/29 01:14:25;;;;;;;1.02;1.02;;;;;;;13.80;100.00;98081.28;4084118;28;20645;-46
2023/08/29 01:16:36;;;;;;;0.85;0.70;;;;;;;13.81;100.00;98082.94;4083695;28;20231;-46
2023/08/29 01:18:38;;;;;;;0.50;0.50;;;;;;;13.77;100.00;98070.84;4086266;29;20210;-45
2023/08/29 01:20:40;;;;;;;1.02;1.02;;;;;;;13.78;100.00;98072.47;4094271;29;20247;-46
2023/08/29 01:22:42;;;;;;;0.98;0.98;;;;;;;13.79;100.00;98068.66;4091260;29;20286;-46
2023/08/29 01:25:02;;;;;;;0.75;0.75;;;;;;;13.97;100.00;98069.94;4093644;28;20301;-46
2023/08/29 01:27:04;;;;;;;0.95;0.95;;;;;;;13.77;100.00;98065.34;4089611;28;20203;-46
2023/08/29 01:29:06;;;;;;;0.60;0.60;;;;;;;13.76;100.00;98077.44;4088242;28;20760;-46
2023/08/29 01:31:09;;;;;;;3.03;0.85;;;;;;;13.75;100.00;98077.72;4089714;29;20207;-47
2023/08/29 01:33:11;;;;;;;0.60;0.60;;;;;;;13.75;100.00;98077.72;4090582;28;20215;-46
2023/08/29 01:35:15;;;;;;;0.50;0.50;;;;;;;13.74;100.00;98076.91;4091735;28;20255;-46
2023/08/29 01:37:17;;;;;;;0.57;0.57;;;;;;;13.73;100.00;98074.44;4091445;28;20245;-46
2023/08/29 01:39:19;;;;;;;0.40;0.40;;;;;;;13.68;100.00;98075.28;4076746;29;20279;-46
2023/08/29 01:41:20;;;;;;;1.52;0.65;;;;;;;13.82;100.00;98073.56;4090898;29;20211;-46
2023/08/29 01:43:22;;;;;;;0.57;0.57;;;;;;;13.87;100.00;98065.31;4102181;28;20215;-46
2023/08/29 01:45:24;;;;;;;0.70;0.70;;;;;;;13.64;100.00;98068.69;4089649;28;20262;-46
2023/08/29 01:47:26;;;;;;;0.50;0.50;;;;;;;13.68;100.00;98072.53;4103328;28;20721;-45
2023/08/29 01:49:30;;;;;;;15.30;1.55;;;;;;;13.54;100.00;98074.22;4087904;29;20721;-46
2023/08/29 01:51:32;;;;;;;1.08;1.08;;;;;;;13.58;100.00;98067.03;4088529;29;20208;-48
2023/08/29 01:53:33;;;;;;;0.50;0.50;;;;;;;13.54;100.00;98065.16;4094571;29;20211;-47
2023/08/29 01:55:37;;;;;;;0.50;0.50;;;;;;;13.67;100.00;98062.63;4093727;28;20224;-45
2023/08/29 01:57:39;;;;;;;0.63;0.63;;;;;;;13.59;100.00;98063.22;4086929;28;20246;-47
2023/08/29 01:59:42;;;;;;;0.47;0.47;;;;;;;13.58;100.00;98067.03;4097418;28;20437;-45
2023/08/29 02:01:46;;;;;;;0.63;0.63;;;;;;;13.47;100.00;98070.94;4105365;28;20561;-46
2023/08/29 02:03:49;;;;;;;1.02;1.02;;;;;;;13.48;100.00;98063.50;4076024;29;20299;-46
2023/08/29 02:05:50;;;;;;;0.50;0.50;;;;;;;13.59;100.00;98063.22;4093874;28;20258;-46
2023/08/29 02:07:52;;;;;;;6.10;1.13;;;;;;;13.60;100.00;98059.38;4094455;28;20207;-46
2023/08/29 02:09:54;;;;;;;0.60;0.60;;;;;;;13.56;100.00;98060.22;4088986;29;20222;-46
2023/08/29 02:11:56;;;;;;;0.60;0.60;;;;;;;13.70;100.00;98053.00;4105877;28;20215;-47
2023/08/29 02:13:58;;;;;;;0.95;0.95;;;;;;;13.62;100.00;98061.81;4078303;29;20216;-45
2023/08/29 02:16:02;;;;;;;1.33;1.23;;;;;;;13.40;100.00;98053.94;4090978;28;20243;-46
2023/08/29 02:18:04;;;;;;;0.68;0.68;;;;;;;13.41;100.00;98050.06;4089779;29;20312;-46
2023/08/29 02:20:07;;;;;;;0.50;0.50;;;;;;;13.33;100.00;98047.06;4082627;28;20267;-46
2023/08/29 02:22:09;;;;;;;1.63;1.52;;;;;;;13.31;100.00;98046.53;4089605;29;20215;-46
2023/08/29 02:24:11;;;;;;;0.90;0.90;;;;;;;13.33;100.00;98047.91;4103640;28;20199;-45
2023/08/29 02:26:13;;;;;;;0.82;0.82;;;;;;;13.33;100.00;98047.91;4090374;29;20740;-48
2023/08/29 02:28:15;;;;;;;0.73;0.73;;;;;;;13.24;100.00;98046.00;4086682;28;20686;-45
2023/08/29 02:30:20;;;;;;;0.50;0.50;;;;;;;13.32;100.00;98046.28;4090186;28;20211;-47
2023/08/29 02:32:21;;;;;;;0.60;0.60;;;;;;;13.45;100.00;98039.34;4076301;29;20208;-46
2023/08/29 02:34:24;;;;;;;0.85;0.85;;;;;;;13.45;100.00;98037.44;4104327;28;20664;-47
2023/08/29 02:36:26;;;;;;;0.90;0.90;;;;;;;13.49;100.00;98027.50;4091593;28;20204;-47
2023/08/29 02:38:28;;;;;;;0.55;0.52;;;;;;;13.58;100.00;98028.56;4093607;29;20222;-47
2023/08/29 02:40:32;;;;;;;0.50;0.50;;;;;;;13.47;100.00;98026.97;4106296;28;20226;-48
2023/08/29 02:42:35;;;;;;;0.60;0.60;;;;;;;13.45;100.00;98028.34;4087810;29;20212;-46
2023/08/29 02:44:36;;;;;;;0.88;0.88;;;;;;;13.48;100.00;98034.13;4103038;28;20235;-47
2023/08/29 02:46:38;;;;;;;0.88;0.80;;;;;;;13.53;100.00;98028.59;4088271;28;20270;-46
2023/08/29 02:48:40;;;;;;;0.63;0.60;;;;;;;13.55;100.00;98034.63;4088144;29;20223;-46
2023/08/29 02:50:42;;;;;;;0.80;0.60;;;;;;;13.52;100.00;98035.22;4086636;29;20208;-46
2023/08/29 02:52:44;;;;;;;1.35;1.15;;;;;;;13.53;100.00;98031.34;4087962;29;20215;-47
2023/08/29 02:54:46;;;;;;;1.58;1.00;;;;;;;13.62;100.00;98029.66;4076642;29;20236;-46
2023/08/29 02:56:47;;;;;;;0.70;0.70;;;;;;;13.58;100.00;98031.31;4091347;28;20282;-48
2023/08/29 02:58:50;;;;;;;0.50;0.50;;;;;;;13.65;100.00;98022.78;4087181;28;20274;-48
2023/08/29 03:00:58;;;;;;;1.08;1.05;;;;;;;13.62;100.00;98018.66;4091877;29;20207;-46
2023/08/29 03:03:01;;;;;;;0.60;0.60;;;;;;;13.64;100.00;98010.94;4102841;28;20293;-46
2023/08/29 03:05:03;;;;;;;1.33;1.33;;;;;;;13.61;100.00;98021.69;4088832;28;20833;-45
2023/08/29 03:07:05;;;;;;;0.85;0.85;;;;;;;13.55;100.00;98018.13;4088375;29;20199;-46
2023/08/29 03:09:07;;;;;;;0.68;0.68;;;;;;;13.52;100.00;98017.88;4074986;29;20312;-47
2023/08/29 03:11:12;;;;;;;0.55;0.55;;;;;;;13.52;100.00;98015.97;4104401;28;20203;-46
2023/08/29 03:13:14;;;;;;;0.80;0.80;;;;;;;13.52;100.00;98020.63;4087349;28;20255;-48
2023/08/29 03:15:15;;;;;;;0.90;0.90;;;;;;;13.53;100.00;98009.34;4093289;28;20235;-46
2023/08/29 03:17:17;;;;;;;1.00;1.00;;;;;;;13.59;100.00;98008.25;4089103;29;20227;-46
2023/08/29 03:19:19;;;;;;;1.70;1.27;;;;;;;13.56;100.00;98019.78;4089750;29;20211;-46
2023/08/29 03:21:21;;;;;;;0.70;0.70;;;;;;;13.50;100.00;98009.91;4092849;29;20595;-48
2023/08/29 03:23:23;;;;;;;0.57;0.57;;;;;;;13.64;100.00;98008.19;4075410;29;20204;-46
2023/08/29 03:25:25;;;;;;;0.50;0.50;;;;;;;13.47;100.00;98015.13;4072783;29;20285;-46
2023/08/29 03:27:27;;;;;;;0.93;0.93;;;;;;;13.33;100.00;98014.94;4088001;28;20212;-46
2023/08/29 03:29:29;;;;;;;1.50;1.42;;;;;;;13.32;100.00;98013.28;4074349;29;20291;-45
2023/08/29 03:31:30;;;;;;;1.60;1.50;;;;;;;13.36;100.00;98019.06;4075767;29;20212;-46
2023/08/29 03:33:32;;;;;;;0.70;0.70;;;;;;;13.29;100.00;98019.34;4090871;29;20244;-46
2023/08/29 03:35:34;;;;;;;1.58;0.90;;;;;;;13.32;100.00;98024.28;4090513;28;20333;-46
2023/08/29 03:37:36;;;;;;;1.38;1.27;;;;;;;13.41;100.00;98025.34;4101843;28;21398;-46
2023/08/29 03:39:37;;;;;;;1.58;1.08;;;;;;;13.34;100.00;98027.56;4089251;29;20297;-45
2023/08/29 03:41:39;;;;;;;0.52;0.52;;;;;;;13.38;100.00;98017.63;4088314;29;20211;-46
2023/08/29 03:43:41;;;;;;;0.95;0.95;;;;;;;13.22;100.00;98021.53;4091006;28;20242;-45
2023/08/29 03:45:42;;;;;;;0.63;0.63;;;;;;;13.23;100.00;98025.94;4087743;28;20235;-45
2023/08/29 03:47:44;;;;;;;0.70;0.70;;;;;;;13.28;100.00;98023.19;4092462;28;20266;-46
2023/08/29 03:49:46;;;;;;;1.33;1.13;;;;;;;13.32;100.00;98027.03;4089315;29;20211;-47
2023/08/29 03:51:48;;;;;;;0.85;0.85;;;;;;;13.46;100.00;98019.84;4080554;28;20215;-46
2023/08/29 03:53:49;;;;;;;0.93;0.93;;;;;;;13.41;100.00;98016.25;4089120;28;20384;-46
2023/08/29 03:55:51;;;;;;;0.90;0.90;;;;;;;13.38;100.00;98020.38;4086437;28;20617;-46
2023/08/29 03:57:53;;;;;;;0.90;0.90;;;;;;;13.31;100.00;98025.34;4069223;29;20703;-46
2023/08/29 03:59:54;;;;;;;8.80;1.50;;;;;;;13.25;100.00;98033.91;4087590;28;20693;-46
2023/08/29 04:01:56;;;;;;;1.40;1.40;;;;;;;13.33;100.00;98028.66;4071894;29;20221;-46
2023/08/29 04:03:58;;;;;;;1.20;1.20;;;;;;;13.28;100.00;98031.44;4090453;28;20269;-46
2023/08/29 04:06:00;;;;;;;0.55;0.55;;;;;;;13.40;100.00;98026.44;4085193;28;21346;-47
2023/08/29 04:08:02;;;;;;;1.70;1.38;;;;;;;13.33;100.00;98030.59;4089788;28;20269;-46
2023/08/29 04:10:05;;;;;;;1.55;0.90;;;;;;;13.49;100.00;98023.97;4085144;28;20600;-46
2023/08/29 04:12:10;;;;;;;1.15;1.13;;;;;;;13.52;100.00;98029.72;4085198;28;20840;-46
2023/08/29 04:14:12;;;;;;;1.13;1.13;;;;;;;13.42;100.00;98026.97;4086118;28;20220;-46
2023/08/29 04:16:15;;;;;;;1.35;1.30;;;;;;;13.44;100.00;98027.53;4086498;28;20247;-46
2023/08/29 04:18:17;;;;;;;1.35;0.93;;;;;;;13.40;100.00;98020.97;4090531;28;20310;-46
2023/08/29 04:20:18;;;;;;;1.45;1.35;;;;;;;13.43;100.00;98025.88;4084962;28;20243;-45
2023/08/29 04:22:20;;;;;;;0.90;0.90;;;;;;;13.43;100.00;98025.88;4099062;28;20213;-45
2023/08/29 04:24:22;;;;;;;0.57;0.57;;;;;;;13.41;100.00;98027.25;4088939;28;20267;-46
2023/08/29 04:26:24;;;;;;;2.50;1.95;;;;;;;13.47;100.00;98018.72;4100607;28;20693;-46
2023/08/29 04:28:26;;;;;;;1.08;0.80;;;;;;;13.48;100.00;98016.78;4084690;28;20690;-45
2023/08/29 04:30:27;;;;;;;0.90;0.90;;;;;;;13.44;100.00;98022.03;4088645;28;20207;-47
2023/08/29 04:32:34;;;;;;;1.30;1.23;;;;;;;13.41;100.00;98027.25;4073757;29;20279;-46
2023/08/29 04:34:36;;;;;;;0.88;0.85;;;;;;;13.40;100.00;98020.97;4093374;28;20214;-45
2023/08/29 04:36:38;;;;;;;1.77;1.75;;;;;;;13.41;100.00;98019.84;4082482;28;20219;-46
2023/08/29 04:38:42;;;;;;;0.50;0.50;;;;;;;13.42;100.00;98018.75;4081411;28;20672;-47
2023/08/29 04:40:43;;;;;;;1.02;1.02;;;;;;;13.42;100.00;98018.75;4084788;28;20241;-47
2023/08/29 04:42:45;;;;;;;4.35;1.08;;;;;;;13.46;100.00;98017.09;4067935;29;20304;-46
2023/08/29 04:44:47;;;;;;;0.38;0.38;;;;;;;13.45;100.00;98017.34;4078578;28;20761;-47
2023/08/29 04:46:48;;;;;;;1.25;1.20;;;;;;;13.42;100.00;98016.00;4088088;28;20685;-47
2023/08/29 04:48:50;;;;;;;0.73;0.73;;;;;;;13.41;100.00;98014.34;4084681;28;20212;-45
2023/08/29 04:50:52;;;;;;;0.60;0.60;;;;;;;13.40;100.00;98015.47;4080872;28;20211;-47
2023/08/29 04:52:55;;;;;;;0.40;0.40;;;;;;;13.42;100.00;98013.25;4097224;28;20214;-45
2023/08/29 04:54:56;;;;;;;0.77;0.77;;;;;;;13.38;100.00;98006.66;4079673;28;20318;-46
2023/08/29 04:56:58;;;;;;;0.50;0.50;;;;;;;13.37;100.00;97999.50;4097841;28;20202;-45
2023/08/29 04:59:00;;;;;;;0.45;0.45;;;;;;;13.39;100.00;98007.47;4083094;29;20259;-46
2023/08/29 05:01:03;;;;;;;0.55;0.55;;;;;;;13.39;100.00;98008.31;4099868;28;20218;-46
2023/08/29 05:03:05;;;;;;;0.50;0.50;;;;;;;13.41;100.00;98005.28;4083477;28;20211;-47
2023/08/29 05:05:07;;;;;;;0.63;0.63;;;;;;;13.42;100.00;98007.75;4081884;28;21827;-45
2023/08/29 05:07:09;;;;;;;1.08;1.02;;;;;;;13.37;100.00;98005.00;4082035;28;20243;-46
2023/08/29 05:09:11;;;;;;;0.68;0.68;;;;;;;13.44;100.00;98007.47;4088622;28;20540;-46
2023/08/29 05:11:13;;;;;;;1.02;1.02;;;;;;;13.47;100.00;98004.16;4086098;28;20223;-46
2023/08/29 05:13:15;;;;;;;1.08;1.08;;;;;;;13.46;100.00;97997.84;4083576;28;20212;-47
2023/08/29 05:15:16;;;;;;;1.65;1.55;;;;;;;13.41;100.00;98008.84;4083741;28;20235;-45
2023/08/29 05:17:18;;;;;;;1.15;1.15;;;;;;;13.42;100.00;98016.00;4085250;28;20224;-46
2023/08/29 05:19:20;;;;;;;0.70;0.70;;;;;;;13.40;100.00;98015.47;4098601;28;20285;-47
2023/08/29 05:21:22;;;;;;;1.33;1.25;;;;;;;13.42;100.00;98005.00;4098553;28;20219;-47
2023/08/29 05:23:23;;;;;;;1.15;1.15;;;;;;;13.44;100.00;98000.03;4083594;28;20219;-46
2023/08/29 05:25:25;;;;;;;1.23;1.08;;;;;;;13.48;100.00;98012.13;4087496;28;20231;-46
2023/08/29 05:27:27;;;;;;;0.90;0.90;;;;;;;13.50;100.00;98007.16;4085928;28;20717;-47
2023/08/29 05:29:29;;;;;;;0.80;0.80;;;;;;;13.53;100.00;97992.88;4085428;28;20211;-46
2023/08/29 05:31:30;;;;;;;1.02;1.02;;;;;;;13.56;100.00;97996.97;4086229;28;20219;-47
2023/08/29 05:33:32;;;;;;;1.25;1.25;;;;;;;13.60;100.00;97998.03;4082461;28;20263;-46
2023/08/29 05:35:34;;;;;;;1.63;1.45;;;;;;;13.59;100.00;97996.41;4069993;29;20236;-47
2023/08/29 05:37:36;;;;;;;0.63;0.63;;;;;;;13.60;100.00;97993.38;4075081;28;20209;-47
2023/08/29 05:39:37;;;;;;;0.68;0.65;;;;;;;13.63;100.00;97998.31;4082622;28;20956;-47
2023/08/29 05:41:39;;;;;;;0.60;0.60;;;;;;;13.63;100.00;98000.25;4083379;28;20208;-46
2023/08/29 05:43:41;;;;;;;0.60;0.60;;;;;;;13.66;100.00;98002.41;4082165;28;20572;-46
2023/08/29 05:45:42;;;;;;;0.88;0.57;;;;;;;13.69;100.00;98008.19;4068925;29;20833;-46
2023/08/29 05:47:44;;;;;;;0.45;0.45;;;;;;;13.74;100.00;97999.91;4079291;28;20213;-47
2023/08/29 05:49:46;;;;;;;0.63;0.63;;;;;;;13.86;100.00;98008.66;4083715;28;20343;-46
2023/08/29 05:51:48;;;;;;;1.67;1.58;;;;;;;13.83;100.00;98008.41;4088327;28;20543;-46
2023/08/29 05:53:53;;;;;;;0.90;0.90;;;;;;;13.73;100.00;98003.78;4086450;28;20271;-46
2023/08/29 05:55:55;;;;;;;0.75;0.75;;;;;;;13.80;100.00;98007.03;4081219;28;20233;-46
2023/08/29 05:57:59;;;;;;;1.10;1.10;;;;;;;13.82;100.00;98002.06;4084586;28;20232;-46
2023/08/29 06:00:04;;;;;;;10.35;1.35;;;;;;;13.87;100.00;98012.22;4083098;28;20218;-45
2023/08/29 06:02:06;;;;;;;9.93;3.30;;;;;;;13.91;100.00;98005.84;4083298;29;20632;-45
2023/08/29 06:04:08;;;;;;;3.22;2.92;;;;;;;13.99;100.00;98010.78;4082701;28;20216;-47
2023/08/29 06:06:10;;;;;;;15.00;3.28;;;;;;;14.01;100.00;98005.81;4088761;28;20235;-47
2023/08/29 06:08:12;;;;;;;1.95;1.58;;;;;;;14.02;100.00;98004.69;4083638;28;20279;-46
2023/08/29 06:10:20;;;;;;;0.95;0.95;;;;;;;14.07;100.00;98010.19;4085111;28;20215;-47
2023/08/29 06:12:22;;;;;;;1.23;1.23;;;;;;;14.12;100.00;98012.91;4086986;28;20223;-46
2023/08/29 06:14:24;;;;;;;1.55;1.55;;;;;;;14.31;100.00;98005.63;4085984;28;20565;-45
2023/08/29 06:16:26;;;;;;;1.50;1.50;;;;;;;14.16;100.00;98015.91;4086680;28;20227;-46
2023/08/29 06:18:28;;;;;;;0.80;0.80;;;;;;;14.14;100.00;98021.69;4074003;29;20277;-46
2023/08/29 06:20:31;;;;;;;1.08;1.08;;;;;;;14.24;100.00;98013.38;4084256;28;20530;-47
2023/08/29 06:22:33;;;;;;;1.80;1.70;;;;;;;14.27;100.00;98018.34;4088976;28;20215;-45
2023/08/29 06:24:37;;;;;;;0.98;0.98;;;;;;;14.32;100.00;98022.97;4083478;28;20616;-46
2023/08/29 06:26:39;;;;;;;0.98;0.98;;;;;;;14.32;100.00;98018.31;4085516;28;20231;-48
2023/08/29 06:28:50;;;;;;;0.75;0.75;;;;;;;14.38;100.00;98008.88;4089618;28;20207;-46
2023/08/29 06:30:52;;;;;;;1.73;1.63;;;;;;;14.46;100.00;98019.28;4087903;28;20203;-46
2023/08/29 06:32:54;;;;;;;2.72;1.95;;;;;;;14.46;100.00;98019.28;4096881;29;20207;-45
2023/08/29 06:34:57;;;;;;;1.10;1.00;;;;;;;14.49;100.00;98023.41;4096146;28;20237;-45
2023/08/29 06:36:59;;;;;;;0.82;0.82;;;;;;;14.43;100.00;98021.81;4087539;29;20219;-45
2023/08/29 06:39:02;;;;;;;1.08;1.00;;;;;;;14.52;100.00;98017.31;4088233;29;20265;-45
2023/08/29 06:41:04;;;;;;;1.05;1.00;;;;;;;14.65;100.00;98016.66;4089869;29;20215;-45
2023/08/29 06:43:11;;;;;;;1.23;1.17;;;;;;;14.78;100.00;98027.00;4096220;28;20789;-45
2023/08/29 06:45:13;;;;;;;2.28;2.15;;;;;;;14.82;100.00;98026.16;4085143;29;20294;-46
2023/08/29 06:47:25;;;;;;;1.88;1.80;;;;;;;14.94;100.00;98031.25;4086776;29;20682;-45
2023/08/29 06:49:56;;;;;;;1.67;1.58;;;;;;;14.95;100.00;98021.88;4088094;29;20310;-45
2023/08/29 06:52:06;;;;;;;1.05;1.05;;;;;;;15.05;100.00;98028.16;4090371;28;20549;-46
2023/08/29 06:54:09;;;;;;;2.05;1.65;;;;;;;15.13;100.00;98024.75;4089577;29;20200;-45
2023/08/29 06:56:21;;;;;;;2.15;1.75;;;;;;;15.23;100.00;98032.91;4090709;29;20246;-46
2023/08/29 06:58:23;;;;;;;2.03;1.30;;;;;;;15.19;100.00;98023.59;4087295;28;20228;-46
2023/08/29 07:00:25;;;;;;;5.82;1.85;;;;;;;15.34;100.00;98026.22;4090155;28;20298;-47
2023/08/29 07:02:27;;;;;;;5.88;2.85;;;;;;;15.41;100.00;98031.34;4077257;29;20686;-46
2023/08/29 07:04:29;;;;;;;2.95;1.52;;;;;;;15.46;100.00;98026.63;4088784;28;20582;-45
2023/08/29 07:06:31;;;;;;;1.33;1.30;;;;;;;15.57;100.00;98019.88;4094148;29;20290;-46
2023/08/29 07:08:33;;;;;;;1.30;1.20;;;;;;;15.65;100.00;98026.69;4092531;28;20674;-46
2023/08/29 07:10:39;;;;;;;1.45;0.90;;;;;;;15.80;100.00;98026.47;4088238;29;20298;-45
2023/08/29 07:12:42;;;;;;;1.38;1.27;;;;;;;15.87;100.00;98030.53;4089309;29;20214;-45
2023/08/29 07:14:44;;;;;;;1.88;1.77;;;;;;;15.89;100.00;98022.78;4088837;28;20224;-46
2023/08/29 07:16:46;;;;;;;2.40;1.73;;;;;;;15.63;100.00;98020.66;4093441;28;20222;-45
2023/08/29 07:19:05;;;;;;;1.20;1.20;;;;;;;15.91;100.00;98015.00;4087377;28;21721;-45
2023/08/29 07:21:07;;;;;;;1.27;1.02;;;;;;;16.07;100.00;98033.03;4088163;28;20777;-45
2023/08/29 07:23:10;;;;;;;2.25;2.00;;;;;;;16.15;100.00;98026.81;4075032;29;20940;-45
2023/08/29 07:25:13;;;;;;;2.78;2.58;;;;;;;16.26;100.00;98028.34;4090153;28;20621;-45
2023/08/29 07:27:22;;;;;;;1.25;1.25;;;;;;;16.42;100.00;98032.53;4103968;28;20703;-45
2023/08/29 07:29:24;;;;;;;1.23;1.20;;;;;;;16.49;100.00;98030.22;4071979;29;20304;-46
2023/08/29 07:31:26;;;;;;;1.85;0.95;;;;;;;16.55;100.00;98037.31;4086704;29;20609;-46
2023/08/29 07:33:29;;;;;;;1.10;1.10;;;;;;;16.67;100.00;98036.84;4092689;29;20663;-45
2023/08/29 07:35:32;;;;;;;2.00;1.85;;;;;;;16.81;99.91;98040.47;4087651;28;20299;-45
2023/08/29 07:37:34;;;;;;;2.40;2.08;;;;;;;16.76;99.32;98044.16;4088759;29;20653;-46
2023/08/29 07:39:38;;;;;;;6.72;1.98;;;;;;;16.70;98.25;98048.13;4089098;29;20733;-47
2023/08/29 07:41:47;;;;;;;2.20;1.98;;;;;;;17.02;99.08;98053.66;4087237;29;20574;-43
2023/08/29 07:43:52;;;;;;;0.80;0.80;;;;;;;16.92;97.98;98056.63;4087633;29;20247;-45
2023/08/29 07:45:54;;;;;;;1.83;1.73;;;;;;;17.18;96.80;98058.63;4086145;28;20236;-45
2023/08/29 07:47:56;;;;;;;0.82;0.80;;;;;;;17.54;95.60;98062.44;4089936;29;20211;-45
2023/08/29 07:49:58;;;;;;;14.32;1.63;;;;;;;17.92;94.43;98068.59;4091962;29;20204;-45
2023/08/29 07:52:00;;;;;;;2.10;1.88;;;;;;;17.92;92.11;98063.06;4100451;28;20203;-45
2023/08/29 07:54:03;;;;;;;1.33;0.98;;;;;;;18.07;92.71;98065.50;4085215;28;20290;-46
2023/08/29 07:56:08;;;;;;;2.33;1.92;;;;;;;18.22;93.04;98062.41;4103891;28;20227;-46
2023/08/29 07:58:10;;;;;;;2.25;2.05;;;;;;;18.48;90.26;98056.03;4087396;28;20565;-45
2023/08/29 08:00:12;;;;;;;1.58;1.48;;;;;;;18.62;88.58;98067.06;4085606;29;20608;-47
2023/08/29 08:02:14;;;;;;;1.33;1.23;;;;;;;18.55;88.83;98067.50;4086935;29;20306;-45
2023/08/29 08:04:16;;;;;;;1.10;0.90;;;;;;;18.67;86.85;98069.72;4100772;28;20230;-47
2023/08/29 08:06:18;;;;;;;1.52;1.42;;;;;;;19.18;86.09;98070.13;4094716;28;20506;-45
2023/08/29 08:08:20;;;;;;;1.40;1.30;;;;;;;19.45;85.19;98065.25;4086941;29;20207;-46
2023/08/29 08:10:31;;;;;;;1.80;1.63;;;;;;;19.28;83.43;98067.94;4093404;28;20669;-46
2023/08/29 08:12:37;;;;;;;1.27;1.00;;;;;;;19.45;84.09;98070.81;4101662;28;20202;-47
2023/08/29 08:14:39;;;;;;;1.55;1.45;;;;;;;19.37;82.82;98068.00;4085578;28;20235;-47
2023/08/29 08:16:41;;;;;;;1.33;1.08;;;;;;;19.73;82.33;98068.66;4092707;29;20219;-46
2023/08/29 08:18:52;;;;;;;2.15;2.00;;;;;;;19.92;81.08;98070.03;4086574;28;20338;-46
2023/08/29 08:20:54;;;;;;;1.08;1.08;;;;;;;20.09;79.15;98080.44;4087918;29;20246;-49
2023/08/29 08:22:56;;;;;;;2.05;1.40;;;;;;;19.93;78.53;98076.44;4087652;29;20685;-46
2023/08/29 08:24:58;;;;;;;1.73;1.60;;;;;;;20.05;79.95;98076.66;4094633;29;22252;-45
2023/08/29 08:27:00;;;;;;;1.70;1.50;;;;;;;20.38;78.55;98077.91;4094634;29;20947;-46
2023/08/29 08:29:04;;;;;;;2.10;1.77;;;;;;;20.06;78.25;98078.31;4085950;29;20238;-46
2023/08/29 08:31:06;;;;;;;2.60;2.50;;;;;;;20.21;79.23;98078.69;4086851;28;20306;-45
2023/08/29 08:33:13;;;;;;;0.80;0.63;;;;;;;20.51;77.41;98072.19;4086499;29;20207;-46
2023/08/29 08:35:14;;;;;;;0.93;0.93;;;;;;;20.66;75.11;98068.16;4091379;28;20237;-45
2023/08/29 08:37:17;;;;;;;1.23;1.13;;;;;;;20.73;76.49;98077.66;4075551;29;20208;-46
2023/08/29 08:39:22;;;;;;;1.38;1.05;;;;;;;20.46;75.46;98077.94;4093174;29;20297;-46
2023/08/29 08:41:24;;;;;;;1.60;1.50;;;;;;;20.34;75.47;98082.47;4076663;29;20298;-46
2023/08/29 08:43:41;;;;;;;1.33;1.27;;;;;;;20.79;75.42;98090.22;4091107;29;20282;-47
2023/08/29 08:45:43;;;;;;;1.45;1.42;;;;;;;20.85;75.10;98082.56;4087312;28;20633;-46
2023/08/29 08:47:46;;;;;;;2.63;2.15;;;;;;;20.38;74.83;98078.72;4092894;29;20215;-45
2023/08/29 08:50:14;;;;;;;1.67;1.15;;;;;;;20.27;74.36;98076.56;4088197;28;20587;-46
2023/08/29 08:52:22;;;;;;;2.08;1.88;;;;;;;20.43;74.22;98080.53;4085533;29;20210;-45
2023/08/29 08:54:27;;;;;;;1.75;1.65;;;;;;;20.70;75.05;98080.25;4091874;28;20716;-45
2023/08/29 08:56:29;;;;;;;2.05;1.55;;;;;;;21.10;73.12;98087.34;4101653;28;20262;-44
2023/08/29 08:58:31;;;;;;;2.00;1.90;;;;;;;20.72;73.27;98094.66;4087440;29;20218;-45
2023/08/29 09:00:33;;;;;;;1.30;1.27;;;;;;;20.59;73.71;98084.50;4084935;29;20211;-46
2023/08/29 09:02:46;;;;;;;1.30;1.25;;;;;;;22.00;71.62;98095.34;4074775;29;20278;-45
2023/08/29 09:04:51;;;;;;;2.20;2.00;;;;;;;21.48;69.08;98085.47;4083702;28;20632;-45
2023/08/29 09:06:55;;;;;;;2.92;2.72;;;;;;;21.70;72.26;98085.31;4087391;28;20215;-48
2023/08/29 09:09:19;;;;;;;1.80;1.70;;;;;;;22.19;71.25;98084.59;4083186;28;20278;-44
2023/08/29 09:11:31;;;;;;;1.52;1.00;;;;;;;21.57;69.95;98083.50;4087846;29;20214;-45
2023/08/29 09:13:33;;;;;;;1.30;1.08;;;;;;;21.64;70.73;98079.03;4102003;28;20209;-45
2023/08/29 09:15:37;;;;;;;1.10;1.10;;;;;;;22.09;70.61;98084.97;4087428;28;20267;-45
2023/08/29 09:17:45;;;;;;;1.27;1.25;;;;;;;21.88;70.47;98078.50;4101593;28;20210;-45
2023/08/29 09:19:51;;;;;;;1.05;0.98;;;;;;;22.58;68.36;98081.47;4086000;29;20372;-45
2023/08/29 09:21:53;;;;;;;1.17;1.17;;;;;;;22.91;67.66;98076.78;4088465;28;20215;-45
2023/08/29 09:23:56;;;;;;;1.33;1.27;;;;;;;22.74;66.74;98074.13;4087489;28;20200;-45
2023/08/29 09:25:58;;;;;;;1.20;0.93;;;;;;;22.88;66.80;98080.25;4078519;29;20266;-45
2023/08/29 09:28:00;;;;;;;1.25;1.25;;;;;;;23.09;66.74;98081.88;4102349;28;20678;-44
2023/08/29 09:30:10;;;;;;;0.98;0.98;;;;;;;23.98;63.70;98071.63;4087627;29;20207;-45
2023/08/29 09:32:13;;;;;;;1.98;1.30;;;;;;;22.76;63.09;98074.63;4084660;29;20253;-45
2023/08/29 09:34:26;;;;;;;0.35;0.35;;;;;;;23.02;64.98;98075.19;4091143;29;20211;-46